Sks Torrens — LAJM5 — position and weather

sailwx.info

Track history (hours):
 
Tides and Currents Weather Stations Pressure Air Temp Water Temp Dewpoint Dewpoint Depression Visibility Wind Speed Wind Dir Waves Ship Positions

Sks Torrens

Last reported at 2018-May-29 10:08 UTC. Time now 2018-Jun-25 17:50 UTC.
Position N 39°22' W 030°33'.
Warning: this ship's position is 27 days out of date.

Length 242 m; draft 9.6 m.

Type: Ship. MMSI: 259956000.

Date/timePositionNaut miles runAvg speedWind from/ knotsBaromVisibWave heightAir tempDewpointWater temp
2018-May-29 10:08N 39°22' W 030°33'2812.1
2018-May-29 07:48N 39°40' W 030°04'411.7
2018-May-29 07:30N 39°42' W 030°00'611.5
2018-May-29 07:00N 39°45' W 029°54'1611.3
2018-May-29 05:33N 39°56' W 029°38'1510.6
2018-May-29 04:10N 40°04' W 029°22'210.1
2018-May-29 03:59N 40°05' W 029°20'1010.1
2018-May-29 03:02N 40°11' W 029°10'010.3
2018-May-29 03:00N 40°11' W 029°10'510.4
2018-May-29 02:30N 40°14' W 029°04'510.3
2018-May-29 02:00N 40°18' W 028°59'1810.2
2018-May-29 00:13N 40°28' W 028°40'310.1
2018-May-28 23:58N 40°30' W 028°38'710.3
2018-May-28 23:18N 40°34' W 028°30'310.0
2018-May-28 22:57N 40°36' W 028°27'510.4
2018-May-28 22:30N 40°39' W 028°22'510.6
2018-May-28 22:00N 40°42' W 028°16'510.5
2018-May-28 21:30N 40°46' W 028°11'  
2018-May-24 14:13N 49°52' W 003°48'210.7
2018-May-24 14:00N 49°53' W 003°45'510.7
2018-May-24 13:30N 49°55' W 003°37'5412.1
2018-May-24 09:00N 50°26' W 002°28'612.7
2018-May-24 08:30N 50°30' W 002°20'7 7.9
2018-May-24 07:37N 50°36' W 002°24'0 2.5
2018-May-24 07:30N 50°36' W 002°24'0 0.1
2018-May-24 05:46N 50°36' W 002°24'0 0.0
2018-May-24 03:19N 50°36' W 002°24'0 0.0
2018-May-24 02:52N 50°36' W 002°24'0 0.0
2018-May-24 02:25N 50°36' W 002°24'0 0.0
2018-May-24 01:34N 50°36' W 002°24'0 0.0
2018-May-24 00:52N 50°36' W 002°24'0 0.1
2018-May-24 00:28N 50°36' W 002°24'0 0.0
2018-May-23 23:58N 50°36' W 002°24'0 0.0
2018-May-23 21:16N 50°36' W 002°24'0 0.1
2018-May-23 19:13N 50°36' W 002°24'0 0.5
2018-May-23 18:58N 50°36' W 002°24'0 0.5
2018-May-23 18:19N 50°36' W 002°23'0 0.3
2018-May-23 17:34N 50°37' W 002°23'0 0.1
2018-May-23 16:10N 50°37' W 002°24'0 0.6
2018-May-23 15:58N 50°37' W 002°23'0 0.2
2018-May-23 15:28N 50°37' W 002°23'0 0.0
2018-May-23 14:58N 50°37' W 002°23'0 0.0
2018-May-23 14:28N 50°37' W 002°23'0 0.0
2018-May-23 13:55N 50°37' W 002°23'0 0.2
2018-May-23 13:28N 50°37' W 002°23'0 0.1
2018-May-23 12:34N 50°37' W 002°23'0 0.1
2018-May-23 10:31N 50°37' W 002°23'0 0.1
2018-May-23 10:04N 50°37' W 002°23'0 0.0
2018-May-23 09:40N 50°37' W 002°23'0 0.0
2018-May-23 07:34N 50°37' W 002°23'0 0.0
2018-May-23 07:13N 50°37' W 002°23'0 0.1
2018-May-23 06:58N 50°37' W 002°23'0 0.0
2018-May-23 06:28N 50°37' W 002°23'0 0.0
2018-May-23 05:58N 50°37' W 002°23'0 0.0
2018-May-23 05:22N 50°37' W 002°23'0 0.1
2018-May-23 04:58N 50°37' W 002°23'0 0.0
2018-May-23 04:22N 50°37' W 002°23'0 0.0
2018-May-23 03:49N 50°37' W 002°23'0 0.1
2018-May-23 03:28N 50°37' W 002°23'0 0.0
2018-May-23 02:58N 50°37' W 002°23'0 0.1
2018-May-23 02:25N 50°37' W 002°23'0 0.0
2018-May-23 01:52N 50°37' W 002°23'0 0.1
2018-May-23 01:16N 50°37' W 002°23'0 0.0
2018-May-22 23:52N 50°37' W 002°23'0 0.1
2018-May-22 23:19N 50°37' W 002°23'0 0.0
2018-May-22 22:22N 50°37' W 002°23'0 0.1
2018-May-22 21:58N 50°37' W 002°23'0 0.0
2018-May-22 21:28N 50°37' W 002°23'0 0.1
2018-May-22 20:48N 50°37' W 002°23'1 2.3
2018-May-22 20:31N 50°36' W 002°23'3 5.4
2018-May-22 20:01N 50°34' W 002°21'1511.2
2018-May-22 18:41N 50°27' W 001°60'212.5
2018-May-22 18:30N 50°27' W 001°56'2311.7
2018-May-22 16:31N 50°25' W 001°20'010.3
2018-May-22 16:29N 50°25' W 001°19'710.0
2018-May-22 15:46N 50°25' W 001°08'2 9.2
2018-May-22 15:30N 50°24' W 001°04'11 8.5
2018-May-22 14:13N 50°24' W 000°47'2 8.5
2018-May-22 14:00N 50°24' W 000°44'4 8.1
2018-May-22 13:29N 50°24' W 000°38'3 5.1
2018-May-22 13:00N 50°24' W 000°34'3 5.6
2018-May-22 12:30N 50°25' W 000°30'3 6.1
2018-May-22 12:00N 50°26' W 000°25'3 6.6
2018-May-22 11:30N 50°27' W 000°20'4 8.4
2018-May-22 11:00N 50°28' W 000°14'611.2
2018-May-22 10:30N 50°29' W 000°06'611.3
2018-May-22 10:00N 50°31' E 000°03'611.7
2018-May-22 09:30N 50°33' E 000°12'611.8
2018-May-22 09:00N 50°34' E 000°21'611.9
2018-May-22 08:30N 50°36' E 000°30'611.6
2018-May-22 08:00N 50°39' E 000°38'611.5
2018-May-22 07:30N 50°42' E 000°45'511.0
2018-May-22 07:00N 50°45' E 000°52'510.4
2018-May-22 06:30N 50°48' E 000°59'5 9.9
2018-May-22 06:00N 50°51' E 001°05'5 9.4
2018-May-22 05:28N 50°55' E 001°11'5 9.1
2018-May-22 04:58N 50°58' E 001°16'4 8.5
2018-May-22 04:29N 51°01' E 001°21'4 8.6
2018-May-22 04:00N 51°03' E 001°26'5 9.5
2018-May-22 03:30N 51°06' E 001°32'510.1
2018-May-22 03:00N 51°10' E 001°38'510.7
2018-May-22 02:30N 51°13' E 001°44'611.6
2018-May-22 02:00N 51°18' E 001°50'612.5
2018-May-22 01:30N 51°23' E 001°56'510.3
2018-May-22 01:00N 51°24' E 002°04'510.6
2018-May-22 00:30N 51°22' E 002°11'611.0
2018-May-22 00:00N 51°21' E 002°20'611.9
2018-May-21 23:30N 51°23' E 002°29'611.3
2018-May-21 23:00N 51°24' E 002°38'3 5.6
2018-May-21 22:31N 51°27' E 002°38'0 0.3
2018-May-21 21:58N 51°27' E 002°38'0 0.2
2018-May-21 21:28N 51°27' E 002°38'0 0.2
2018-May-21 20:58N 51°27' E 002°38'0 0.1
2018-May-21 20:31N 51°27' E 002°38'0 0.0
2018-May-21 20:01N 51°27' E 002°38'0 0.0
2018-May-21 19:31N 51°27' E 002°38'0 0.0
2018-May-21 19:01N 51°27' E 002°39'0 0.0
2018-May-21 18:31N 51°27' E 002°39'0 0.0
2018-May-21 18:00N 51°27' E 002°39'0 0.0
2018-May-21 17:31N 51°27' E 002°39'0 0.1
2018-May-21 17:01N 51°27' E 002°39'0 0.2
2018-May-21 16:22N 51°27' E 002°38'0 0.2
2018-May-21 16:01N 51°27' E 002°38'0 0.1
2018-May-21 15:30N 51°27' E 002°38'0 0.1
2018-May-21 14:58N 51°27' E 002°38'0 0.1
2018-May-21 14:28N 51°27' E 002°38'0 0.0
2018-May-21 14:01N 51°27' E 002°38'0 0.0
2018-May-21 13:25N 51°27' E 002°38'0 0.0
2018-May-21 12:55N 51°27' E 002°38'0 0.0
2018-May-21 12:22N 51°27' E 002°38'0 0.0
2018-May-21 11:58N 51°27' E 002°38'0 0.0
2018-May-21 11:28N 51°27' E 002°38'0 0.0
2018-May-21 10:58N 51°27' E 002°38'0 0.0
2018-May-21 10:25N 51°27' E 002°38'0 0.0
2018-May-21 09:55N 51°27' E 002°38'0 0.1
2018-May-21 09:31N 51°27' E 002°38'0 0.2
2018-May-21 08:55N 51°27' E 002°38'0 0.2
2018-May-21 08:28N 51°27' E 002°38'0 0.1
2018-May-21 07:58N 51°27' E 002°38'0 0.1
2018-May-21 07:31N 51°27' E 002°38'0 0.0
2018-May-21 06:55N 51°27' E 002°39'0 0.0
2018-May-21 06:28N 51°27' E 002°39'0 0.0
2018-May-21 06:01N 51°27' E 002°39'0 0.0
2018-May-21 05:25N 51°27' E 002°39'0 0.0
2018-May-21 05:01N 51°27' E 002°39'0 0.0
2018-May-21 04:25N 51°27' E 002°39'0 0.0
2018-May-21 03:58N 51°27' E 002°39'0 0.1
2018-May-21 03:28N 51°27' E 002°39'0 0.2
2018-May-21 02:55N 51°27' E 002°38'0 0.2
2018-May-21 02:25N 51°27' E 002°38'0 0.1
2018-May-21 01:58N 51°27' E 002°38'0 0.0
2018-May-21 01:22N 51°27' E 002°38'0 0.0
2018-May-21 00:58N 51°27' E 002°38'0 0.0
2018-May-21 00:28N 51°27' E 002°38'0 0.0
2018-May-21 00:01N 51°27' E 002°38'0 0.0
2018-May-20 23:22N 51°27' E 002°38'0 0.0
2018-May-20 22:55N 51°27' E 002°38'0 0.0
2018-May-20 22:25N 51°27' E 002°38'0 0.0
2018-May-20 21:55N 51°27' E 002°38'0 0.0
2018-May-20 21:28N 51°27' E 002°38'0 0.0
2018-May-20 20:55N 51°27' E 002°38'0 0.4
2018-May-20 20:28N 51°27' E 002°38'0 0.2
2018-May-20 19:58N 51°27' E 002°39'0 0.1
2018-May-20 19:31N 51°27' E 002°38'0 0.0
2018-May-20 19:00N 51°27' E 002°39'0 0.0
2018-May-20 18:28N 51°27' E 002°38'0 0.0
2018-May-20 17:58N 51°27' E 002°38'0 0.0
2018-May-20 17:28N 51°27' E 002°38'0 0.0
2018-May-20 16:58N 51°27' E 002°39'0 0.0
2018-May-20 16:25N 51°27' E 002°39'0 0.0
2018-May-20 15:58N 51°27' E 002°39'0 0.1
2018-May-20 15:25N 51°27' E 002°39'0 0.2
2018-May-20 14:52N 51°27' E 002°38'0 0.1
2018-May-20 14:28N 51°27' E 002°38'0 0.1
2018-May-20 13:58N 51°27' E 002°38'0 0.1
2018-May-20 13:25N 51°27' E 002°38'0 0.0
2018-May-20 12:58N 51°27' E 002°38'0 0.0
2018-May-20 12:28N 51°27' E 002°38'0 0.0
2018-May-20 11:58N 51°27' E 002°38'0 0.0
2018-May-20 11:25N 51°27' E 002°38'0 0.0
2018-May-20 10:55N 51°27' E 002°38'0 0.0
2018-May-20 10:25N 51°27' E 002°38'0 0.0
2018-May-20 09:58N 51°27' E 002°38'0 0.1
2018-May-20 09:22N 51°27' E 002°38'0 0.0
2018-May-20 08:59N 51°27' E 002°38'0 0.1
2018-May-20 08:29N 51°27' E 002°38'0 0.2
2018-May-20 07:59N 51°27' E 002°38'0 0.1
2018-May-20 07:20N 51°27' E 002°38'0 0.1
2018-May-20 06:56N 51°27' E 002°38'0 0.0
2018-May-20 06:29N 51°27' E 002°38'0 0.0
2018-May-20 05:53N 51°27' E 002°39'0 0.0
2018-May-20 05:26N 51°27' E 002°39'0 0.0
2018-May-20 04:59N 51°27' E 002°39'0 0.0
2018-May-20 04:29N 51°27' E 002°39'0 0.0
2018-May-20 03:59N 51°27' E 002°39'0 0.0
2018-May-20 03:29N 51°27' E 002°39'0 0.0
2018-May-20 02:59N 51°27' E 002°39'0 0.1
2018-May-20 02:29N 51°27' E 002°39'0 0.3
2018-May-20 01:59N 51°27' E 002°38'0 0.1
2018-May-20 01:29N 51°27' E 002°38'0 0.1
2018-May-20 00:59N 51°27' E 002°38'0 0.0
2018-May-20 00:29N 51°27' E 002°38'0 0.0
2018-May-19 23:59N 51°27' E 002°38'0 0.0
2018-May-19 23:29N 51°27' E 002°38'0 0.0
2018-May-19 22:56N 51°27' E 002°38'0 0.0
2018-May-19 22:29N 51°27' E 002°38'0 0.0
2018-May-19 21:53N 51°27' E 002°38'0 0.0
2018-May-19 21:29N 51°27' E 002°38'0 0.1
2018-May-19 20:59N 51°27' E 002°38'0 0.1
2018-May-19 20:29N 51°27' E 002°38'0 0.1
2018-May-19 19:59N 51°27' E 002°38'0 0.3
2018-May-19 19:26N 51°27' E 002°38'0 0.1
2018-May-19 18:59N 51°27' E 002°38'0 0.0
2018-May-19 18:23N 51°27' E 002°38'0 0.0
2018-May-19 17:59N 51°27' E 002°38'0 0.0
2018-May-19 17:29N 51°27' E 002°39'0 0.0
2018-May-19 16:59N 51°27' E 002°39'0 0.0
2018-May-19 16:29N 51°27' E 002°39'0 0.0
2018-May-19 15:59N 51°27' E 002°39'0 0.0
2018-May-19 15:17N 51°27' E 002°39'0 0.0
2018-May-19 14:59N 51°27' E 002°39'0 0.1
2018-May-19 14:29N 51°27' E 002°39'0 0.3
2018-May-19 13:59N 51°27' E 002°38'0 0.1
2018-May-19 13:26N 51°27' E 002°38'0 0.1
2018-May-19 12:59N 51°27' E 002°38'0 0.1
2018-May-19 12:29N 51°27' E 002°38'0 0.0
2018-May-19 11:59N 51°27' E 002°38'0 0.0
2018-May-19 11:29N 51°27' E 002°38'0 0.0
2018-May-19 10:59N 51°27' E 002°38'0 0.0
2018-May-19 10:29N 51°27' E 002°38'  
Track history (hours):
 
Tides and Currents Weather Stations Pressure Air Temp Water Temp Dewpoint Dewpoint Depression Visibility Wind Speed Wind Dir Waves Ship Positions

Sks Torrens

Last reported at 2018-May-29 10:08 UTC. Time now 2018-Jun-25 17:50 UTC.
Position N 39°22' W 030°33'.
Warning: this ship's position is 27 days out of date.

Length 242 m; draft 9.6 m.

Type: Ship. MMSI: 259956000.

Date/timePositionNaut miles runAvg speedWind from/ knotsBaromVisibWave heightAir tempDewpointWater temp
2018-May-29 10:08N 39°22' W 030°33'2812.1
2018-May-29 07:48N 39°40' W 030°04'411.7
2018-May-29 07:30N 39°42' W 030°00'611.5
2018-May-29 07:00N 39°45' W 029°54'1611.3
2018-May-29 05:33N 39°56' W 029°38'1510.6
2018-May-29 04:10N 40°04' W 029°22'210.1
2018-May-29 03:59N 40°05' W 029°20'1010.1
2018-May-29 03:02N 40°11' W 029°10'010.3
2018-May-29 03:00N 40°11' W 029°10'510.4
2018-May-29 02:30N 40°14' W 029°04'510.3
2018-May-29 02:00N 40°18' W 028°59'1810.2
2018-May-29 00:13N 40°28' W 028°40'310.1
2018-May-28 23:58N 40°30' W 028°38'710.3
2018-May-28 23:18N 40°34' W 028°30'310.0
2018-May-28 22:57N 40°36' W 028°27'510.4
2018-May-28 22:30N 40°39' W 028°22'510.6
2018-May-28 22:00N 40°42' W 028°16'510.5
2018-May-28 21:30N 40°46' W 028°11'  
2018-May-24 14:13N 49°52' W 003°48'210.7
2018-May-24 14:00N 49°53' W 003°45'510.7
2018-May-24 13:30N 49°55' W 003°37'5412.1
2018-May-24 09:00N 50°26' W 002°28'612.7
2018-May-24 08:30N 50°30' W 002°20'7 7.9
2018-May-24 07:37N 50°36' W 002°24'0 2.5
2018-May-24 07:30N 50°36' W 002°24'0 0.1
2018-May-24 05:46N 50°36' W 002°24'0 0.0
2018-May-24 03:19N 50°36' W 002°24'0 0.0
2018-May-24 02:52N 50°36' W 002°24'0 0.0
2018-May-24 02:25N 50°36' W 002°24'0 0.0
2018-May-24 01:34N 50°36' W 002°24'0 0.0
2018-May-24 00:52N 50°36' W 002°24'0 0.1
2018-May-24 00:28N 50°36' W 002°24'0 0.0
2018-May-23 23:58N 50°36' W 002°24'0 0.0
2018-May-23 21:16N 50°36' W 002°24'0 0.1
2018-May-23 19:13N 50°36' W 002°24'0 0.5
2018-May-23 18:58N 50°36' W 002°24'0 0.5
2018-May-23 18:19N 50°36' W 002°23'0 0.3
2018-May-23 17:34N 50°37' W 002°23'0 0.1
2018-May-23 16:10N 50°37' W 002°24'0 0.6
2018-May-23 15:58N 50°37' W 002°23'0 0.2
2018-May-23 15:28N 50°37' W 002°23'0 0.0
2018-May-23 14:58N 50°37' W 002°23'0 0.0
2018-May-23 14:28N 50°37' W 002°23'0 0.0
2018-May-23 13:55N 50°37' W 002°23'0 0.2
2018-May-23 13:28N 50°37' W 002°23'0 0.1
2018-May-23 12:34N 50°37' W 002°23'0 0.1
2018-May-23 10:31N 50°37' W 002°23'0 0.1
2018-May-23 10:04N 50°37' W 002°23'0 0.0
2018-May-23 09:40N 50°37' W 002°23'0 0.0
2018-May-23 07:34N 50°37' W 002°23'0 0.0
2018-May-23 07:13N 50°37' W 002°23'0 0.1
2018-May-23 06:58N 50°37' W 002°23'0 0.0
2018-May-23 06:28N 50°37' W 002°23'0 0.0
2018-May-23 05:58N 50°37' W 002°23'0 0.0
2018-May-23 05:22N 50°37' W 002°23'0 0.1
2018-May-23 04:58N 50°37' W 002°23'0 0.0
2018-May-23 04:22N 50°37' W 002°23'0 0.0
2018-May-23 03:49N 50°37' W 002°23'0 0.1
2018-May-23 03:28N 50°37' W 002°23'0 0.0
2018-May-23 02:58N 50°37' W 002°23'0 0.1
2018-May-23 02:25N 50°37' W 002°23'0 0.0
2018-May-23 01:52N 50°37' W 002°23'0 0.1
2018-May-23 01:16N 50°37' W 002°23'0 0.0
2018-May-22 23:52N 50°37' W 002°23'0 0.1
2018-May-22 23:19N 50°37' W 002°23'0 0.0
2018-May-22 22:22N 50°37' W 002°23'0 0.1
2018-May-22 21:58N 50°37' W 002°23'0 0.0
2018-May-22 21:28N 50°37' W 002°23'0 0.1
2018-May-22 20:48N 50°37' W 002°23'1 2.3
2018-May-22 20:31N 50°36' W 002°23'3 5.4
2018-May-22 20:01N 50°34' W 002°21'1511.2
2018-May-22 18:41N 50°27' W 001°60'212.5
2018-May-22 18:30N 50°27' W 001°56'2311.7
2018-May-22 16:31N 50°25' W 001°20'010.3
2018-May-22 16:29N 50°25' W 001°19'710.0
2018-May-22 15:46N 50°25' W 001°08'2 9.2
2018-May-22 15:30N 50°24' W 001°04'11 8.5
2018-May-22 14:13N 50°24' W 000°47'2 8.5
2018-May-22 14:00N 50°24' W 000°44'4 8.1
2018-May-22 13:29N 50°24' W 000°38'3 5.1
2018-May-22 13:00N 50°24' W 000°34'3 5.6
2018-May-22 12:30N 50°25' W 000°30'3 6.1
2018-May-22 12:00N 50°26' W 000°25'3 6.6
2018-May-22 11:30N 50°27' W 000°20'4 8.4
2018-May-22 11:00N 50°28' W 000°14'611.2
2018-May-22 10:30N 50°29' W 000°06'611.3
2018-May-22 10:00N 50°31' E 000°03'611.7
2018-May-22 09:30N 50°33' E 000°12'611.8
2018-May-22 09:00N 50°34' E 000°21'611.9
2018-May-22 08:30N 50°36' E 000°30'611.6
2018-May-22 08:00N 50°39' E 000°38'611.5
2018-May-22 07:30N 50°42' E 000°45'511.0
2018-May-22 07:00N 50°45' E 000°52'510.4
2018-May-22 06:30N 50°48' E 000°59'5 9.9
2018-May-22 06:00N 50°51' E 001°05'5 9.4
2018-May-22 05:28N 50°55' E 001°11'5 9.1
2018-May-22 04:58N 50°58' E 001°16'4 8.5
2018-May-22 04:29N 51°01' E 001°21'4 8.6
2018-May-22 04:00N 51°03' E 001°26'5 9.5
2018-May-22 03:30N 51°06' E 001°32'510.1
2018-May-22 03:00N 51°10' E 001°38'510.7
2018-May-22 02:30N 51°13' E 001°44'611.6
2018-May-22 02:00N 51°18' E 001°50'612.5
2018-May-22 01:30N 51°23' E 001°56'510.3
2018-May-22 01:00N 51°24' E 002°04'510.6
2018-May-22 00:30N 51°22' E 002°11'611.0
2018-May-22 00:00N 51°21' E 002°20'611.9
2018-May-21 23:30N 51°23' E 002°29'611.3
2018-May-21 23:00N 51°24' E 002°38'3 5.6
2018-May-21 22:31N 51°27' E 002°38'0 0.3
2018-May-21 21:58N 51°27' E 002°38'0 0.2
2018-May-21 21:28N 51°27' E 002°38'0 0.2
2018-May-21 20:58N 51°27' E 002°38'0 0.1
2018-May-21 20:31N 51°27' E 002°38'0 0.0
2018-May-21 20:01N 51°27' E 002°38'0 0.0
2018-May-21 19:31N 51°27' E 002°38'0 0.0
2018-May-21 19:01N 51°27' E 002°39'0 0.0
2018-May-21 18:31N 51°27' E 002°39'0 0.0
2018-May-21 18:00N 51°27' E 002°39'0 0.0
2018-May-21 17:31N 51°27' E 002°39'0 0.1
2018-May-21 17:01N 51°27' E 002°39'0 0.2
2018-May-21 16:22N 51°27' E 002°38'0 0.2
2018-May-21 16:01N 51°27' E 002°38'0 0.1
2018-May-21 15:30N 51°27' E 002°38'0 0.1
2018-May-21 14:58N 51°27' E 002°38'0 0.1
2018-May-21 14:28N 51°27' E 002°38'0 0.0
2018-May-21 14:01N 51°27' E 002°38'0 0.0
2018-May-21 13:25N 51°27' E 002°38'0 0.0
2018-May-21 12:55N 51°27' E 002°38'0 0.0
2018-May-21 12:22N 51°27' E 002°38'0 0.0
2018-May-21 11:58N 51°27' E 002°38'0 0.0
2018-May-21 11:28N 51°27' E 002°38'0 0.0
2018-May-21 10:58N 51°27' E 002°38'0 0.0
2018-May-21 10:25N 51°27' E 002°38'0 0.0
2018-May-21 09:55N 51°27' E 002°38'0 0.1
2018-May-21 09:31N 51°27' E 002°38'0 0.2
2018-May-21 08:55N 51°27' E 002°38'0 0.2
2018-May-21 08:28N 51°27' E 002°38'0 0.1
2018-May-21 07:58N 51°27' E 002°38'0 0.1
2018-May-21 07:31N 51°27' E 002°38'0 0.0
2018-May-21 06:55N 51°27' E 002°39'0 0.0
2018-May-21 06:28N 51°27' E 002°39'0 0.0
2018-May-21 06:01N 51°27' E 002°39'0 0.0
2018-May-21 05:25N 51°27' E 002°39'0 0.0
2018-May-21 05:01N 51°27' E 002°39'0 0.0
2018-May-21 04:25N 51°27' E 002°39'0 0.0
2018-May-21 03:58N 51°27' E 002°39'0 0.1
2018-May-21 03:28N 51°27' E 002°39'0 0.2
2018-May-21 02:55N 51°27' E 002°38'0 0.2
2018-May-21 02:25N 51°27' E 002°38'0 0.1
2018-May-21 01:58N 51°27' E 002°38'0 0.0
2018-May-21 01:22N 51°27' E 002°38'0 0.0
2018-May-21 00:58N 51°27' E 002°38'0 0.0
2018-May-21 00:28N 51°27' E 002°38'0 0.0
2018-May-21 00:01N 51°27' E 002°38'0 0.0
2018-May-20 23:22N 51°27' E 002°38'0 0.0
2018-May-20 22:55N 51°27' E 002°38'0 0.0
2018-May-20 22:25N 51°27' E 002°38'0 0.0
2018-May-20 21:55N 51°27' E 002°38'0 0.0
2018-May-20 21:28N 51°27' E 002°38'0 0.0
2018-May-20 20:55N 51°27' E 002°38'0 0.4
2018-May-20 20:28N 51°27' E 002°38'0 0.2
2018-May-20 19:58N 51°27' E 002°39'0 0.1
2018-May-20 19:31N 51°27' E 002°38'0 0.0
2018-May-20 19:00N 51°27' E 002°39'0 0.0
2018-May-20 18:28N 51°27' E 002°38'0 0.0
2018-May-20 17:58N 51°27' E 002°38'0 0.0
2018-May-20 17:28N 51°27' E 002°38'0 0.0
2018-May-20 16:58N 51°27' E 002°39'0 0.0
2018-May-20 16:25N 51°27' E 002°39'0 0.0
2018-May-20 15:58N 51°27' E 002°39'0 0.1
2018-May-20 15:25N 51°27' E 002°39'0 0.2
2018-May-20 14:52N 51°27' E 002°38'0 0.1
2018-May-20 14:28N 51°27' E 002°38'0 0.1
2018-May-20 13:58N 51°27' E 002°38'0 0.1
2018-May-20 13:25N 51°27' E 002°38'0 0.0
2018-May-20 12:58N 51°27' E 002°38'0 0.0
2018-May-20 12:28N 51°27' E 002°38'0 0.0
2018-May-20 11:58N 51°27' E 002°38'0 0.0
2018-May-20 11:25N 51°27' E 002°38'0 0.0
2018-May-20 10:55N 51°27' E 002°38'0 0.0
2018-May-20 10:25N 51°27' E 002°38'0 0.0
2018-May-20 09:58N 51°27' E 002°38'0 0.1
2018-May-20 09:22N 51°27' E 002°38'0 0.0
2018-May-20 08:59N 51°27' E 002°38'0 0.1
2018-May-20 08:29N 51°27' E 002°38'0 0.2
2018-May-20 07:59N 51°27' E 002°38'0 0.1
2018-May-20 07:20N 51°27' E 002°38'0 0.1
2018-May-20 06:56N 51°27' E 002°38'0 0.0
2018-May-20 06:29N 51°27' E 002°38'0 0.0
2018-May-20 05:53N 51°27' E 002°39'0 0.0
2018-May-20 05:26N 51°27' E 002°39'0 0.0
2018-May-20 04:59N 51°27' E 002°39'0 0.0
2018-May-20 04:29N 51°27' E 002°39'0 0.0
2018-May-20 03:59N 51°27' E 002°39'0 0.0
2018-May-20 03:29N 51°27' E 002°39'0 0.0
2018-May-20 02:59N 51°27' E 002°39'0 0.1
2018-May-20 02:29N 51°27' E 002°39'0 0.3
2018-May-20 01:59N 51°27' E 002°38'0 0.1
2018-May-20 01:29N 51°27' E 002°38'0 0.1
2018-May-20 00:59N 51°27' E 002°38'0 0.0
2018-May-20 00:29N 51°27' E 002°38'0 0.0
2018-May-19 23:59N 51°27' E 002°38'0 0.0
2018-May-19 23:29N 51°27' E 002°38'0 0.0
2018-May-19 22:56N 51°27' E 002°38'0 0.0
2018-May-19 22:29N 51°27' E 002°38'0 0.0
2018-May-19 21:53N 51°27' E 002°38'0 0.0
2018-May-19 21:29N 51°27' E 002°38'0 0.1
2018-May-19 20:59N 51°27' E 002°38'0 0.1
2018-May-19 20:29N 51°27' E 002°38'0 0.1
2018-May-19 19:59N 51°27' E 002°38'0 0.3
2018-May-19 19:26N 51°27' E 002°38'0 0.1
2018-May-19 18:59N 51°27' E 002°38'0 0.0
2018-May-19 18:23N 51°27' E 002°38'0 0.0
2018-May-19 17:59N 51°27' E 002°38'0 0.0
2018-May-19 17:29N 51°27' E 002°39'0 0.0
2018-May-19 16:59N 51°27' E 002°39'0 0.0
2018-May-19 16:29N 51°27' E 002°39'0 0.0
2018-May-19 15:59N 51°27' E 002°39'0 0.0
2018-May-19 15:17N 51°27' E 002°39'0 0.0
2018-May-19 14:59N 51°27' E 002°39'0 0.1
2018-May-19 14:29N 51°27' E 002°39'0 0.3
2018-May-19 13:59N 51°27' E 002°38'0 0.1
2018-May-19 13:26N 51°27' E 002°38'0 0.1
2018-May-19 12:59N 51°27' E 002°38'0 0.1
2018-May-19 12:29N 51°27' E 002°38'0 0.0
2018-May-19 11:59N 51°27' E 002°38'0 0.0
2018-May-19 11:29N 51°27' E 002°38'0 0.0
2018-May-19 10:59N 51°27' E 002°38'0 0.0
2018-May-19 10:29N 51°27' E 002°38'  

Dump ship's entire track history